createdAt,value
2023-04-01T00:01:53.119Z,10.06
2023-04-01T00:04:19.762Z,10.06
2023-04-01T00:06:46.300Z,10.07
2023-04-01T00:09:12.797Z,10.05
2023-04-01T00:11:39.677Z,10.06
2023-04-01T00:14:07.005Z,10.08
2023-04-01T00:16:34.201Z,10.06
2023-04-01T00:19:01.248Z,10.08
2023-04-01T00:21:27.869Z,10.09
2023-04-01T00:23:54.483Z,10.08
2023-04-01T00:26:22.972Z,10.07
2023-04-01T00:28:50.415Z,10.07
2023-04-01T00:31:17.385Z,10.05
2023-04-01T00:33:44.637Z,10.04
2023-04-01T00:36:13.379Z,10.02
2023-04-01T00:38:40.551Z,10.01
2023-04-01T00:41:07.487Z,10.01
2023-04-01T00:43:34.192Z,10.00
2023-04-01T00:46:01.044Z,9.99
2023-04-01T00:48:37.678Z,10.00
2023-04-01T00:54:05.600Z,9.98
2023-04-01T00:56:36.687Z,9.99
2023-04-01T00:59:09.193Z,10.00
2023-04-01T01:01:37.192Z,9.98
2023-04-01T01:04:04.606Z,9.98
2023-04-01T01:06:51.189Z,9.95
2023-04-01T01:09:26.756Z,9.92
2023-04-01T01:12:08.303Z,9.90
2023-04-01T01:14:37.430Z,9.90
2023-04-01T01:17:31.419Z,9.90
2023-04-01T01:20:25.971Z,9.89
2023-04-01T01:23:22.111Z,9.89
2023-04-01T01:26:27.432Z,9.90
2023-04-01T01:29:15.744Z,9.87
2023-04-01T01:32:12.519Z,9.85
2023-04-01T01:35:10.290Z,9.85
2023-04-01T01:37:39.364Z,9.88
2023-04-01T01:40:09.443Z,9.89
2023-04-01T01:42:40.797Z,9.86
2023-04-01T01:45:09.852Z,9.84
2023-04-01T01:47:37.822Z,9.83
2023-04-01T01:50:06.038Z,9.81
2023-04-01T01:52:32.815Z,9.81
2023-04-01T01:54:59.527Z,9.78
2023-04-01T01:57:37.968Z,9.77
2023-04-01T02:00:14.511Z,9.73
2023-04-01T02:02:45.156Z,9.72
2023-04-01T02:05:20.612Z,9.71
2023-04-01T02:07:53.093Z,9.72
2023-04-01T02:10:22.274Z,9.69
2023-04-01T02:12:50.290Z,9.68
2023-04-01T02:15:17.942Z,9.68
2023-04-01T02:17:47.081Z,9.65
2023-04-01T02:20:21.759Z,9.63
2023-04-01T02:22:52.371Z,9.61
2023-04-01T02:25:24.622Z,9.62
2023-04-01T02:27:51.272Z,9.61
2023-04-01T02:30:18.789Z,9.59
2023-04-01T02:32:46.663Z,9.60
2023-04-01T02:35:16.614Z,9.55
2023-04-01T02:37:44.615Z,9.51
2023-04-01T02:40:15.745Z,9.51
2023-04-01T02:42:42.563Z,9.49
2023-04-01T02:45:09.885Z,9.47
2023-04-01T02:47:36.465Z,9.46
2023-04-01T02:50:03.450Z,9.46
2023-04-01T02:52:30.747Z,9.46
2023-04-01T02:54:58.149Z,9.44
2023-04-01T02:57:25.957Z,9.42
2023-04-01T02:59:52.591Z,9.40
2023-04-01T03:02:19.130Z,9.41
2023-04-01T03:04:46.023Z,9.41
2023-04-01T03:07:12.568Z,9.40
2023-04-01T03:09:39.830Z,9.40
2023-04-01T03:12:07.374Z,9.39
2023-04-01T03:14:34.154Z,9.37
2023-04-01T03:17:01.539Z,9.37
2023-04-01T03:19:28.744Z,9.37
2023-04-01T03:21:55.586Z,9.37
2023-04-01T03:24:22.381Z,9.36
2023-04-01T03:26:49.443Z,9.35
2023-04-01T03:29:16.898Z,9.31
2023-04-01T03:31:43.836Z,9.30
2023-04-01T03:34:10.861Z,9.29
2023-04-01T03:36:37.626Z,9.27
2023-04-01T03:39:04.851Z,9.26
2023-04-01T03:41:31.865Z,9.26
2023-04-01T03:43:58.491Z,9.26
2023-04-01T03:46:25.545Z,9.27
2023-04-01T03:48:52.387Z,9.24
2023-04-01T03:51:19.012Z,9.24
2023-04-01T03:53:46.297Z,9.22
2023-04-01T03:56:12.778Z,9.23
2023-04-01T03:58:40.059Z,9.23
2023-04-01T04:01:24.478Z,9.24
2023-04-01T04:03:51.894Z,9.24
2023-04-01T04:06:20.277Z,9.24
2023-04-01T04:08:47.710Z,9.25
2023-04-01T04:11:15.704Z,9.24
2023-04-01T04:13:42.755Z,9.24
2023-04-01T04:16:10.781Z,9.26
2023-04-01T04:18:38.367Z,9.25
2023-04-01T04:21:05.258Z,9.26
2023-04-01T04:23:34.519Z,9.27
2023-04-01T04:26:06.452Z,9.28
2023-04-01T04:28:33.618Z,9.26
2023-04-01T04:31:00.985Z,9.26
2023-04-01T04:33:28.452Z,9.27
2023-04-01T04:35:59.337Z,9.27
2023-04-01T04:38:26.487Z,9.28
2023-04-01T04:40:53.063Z,9.28
2023-04-01T04:43:20.544Z,9.29
2023-04-01T04:45:47.334Z,9.29
2023-04-01T04:48:19.998Z,9.30
2023-04-01T04:50:50.759Z,9.28
2023-04-01T04:53:18.838Z,9.29
2023-04-01T04:55:50.552Z,9.32
2023-04-01T04:58:17.835Z,9.30
2023-04-01T05:00:44.968Z,9.30
2023-04-01T05:03:12.279Z,9.32
2023-04-01T05:05:39.166Z,9.34
2023-04-01T05:08:06.592Z,9.34
2023-04-01T05:10:33.227Z,9.35
2023-04-01T05:12:59.762Z,9.35
2023-04-01T05:15:26.460Z,9.35
2023-04-01T05:17:53.081Z,9.38
2023-04-01T05:20:19.836Z,9.34
2023-04-01T05:22:46.558Z,9.38
2023-04-01T05:25:13.255Z,9.37
2023-04-01T05:27:40.017Z,9.38
2023-04-01T05:30:07.387Z,9.41
2023-04-01T05:32:34.115Z,9.38
2023-04-01T05:35:00.786Z,9.38
2023-04-01T05:37:27.363Z,9.39
2023-04-01T05:39:53.822Z,9.38
2023-04-01T05:42:25.746Z,9.38
2023-04-01T05:44:52.355Z,9.39
2023-04-01T05:47:18.916Z,9.40
2023-04-01T05:49:45.787Z,9.39
2023-04-01T05:53:16.889Z,9.40
2023-04-01T05:55:50.804Z,9.40
2023-04-01T05:58:17.334Z,9.41
2023-04-01T06:03:38.591Z,9.42
2023-04-01T06:06:14.704Z,9.41
2023-04-01T06:08:41.398Z,9.43
2023-04-01T06:11:27.438Z,9.44
2023-04-01T06:14:24.609Z,9.43
2023-04-01T06:17:22.982Z,9.44
2023-04-01T06:20:12.124Z,9.43
2023-04-01T06:22:50.846Z,9.43
2023-04-01T06:25:41.798Z,9.44
2023-04-01T06:28:44.790Z,9.44
2023-04-01T06:31:19.434Z,9.43
2023-04-01T06:33:59.964Z,9.46
2023-04-01T06:36:48.596Z,9.49
2023-04-01T06:39:43.850Z,9.56
2023-04-01T06:42:19.797Z,9.63
2023-04-01T06:44:46.362Z,9.68
2023-04-01T06:47:15.990Z,9.79
2023-04-01T06:49:56.483Z,9.81
2023-04-01T06:52:32.394Z,9.93
2023-04-01T06:55:10.592Z,9.97
2023-04-01T06:57:45.042Z,10.03
2023-04-01T07:00:31.607Z,10.08
2023-04-01T07:03:20.832Z,10.10
2023-04-01T07:05:47.660Z,10.12
2023-04-01T07:08:21.543Z,10.16
2023-04-01T07:11:06.310Z,10.17
2023-04-01T07:13:46.083Z,10.25
2023-04-01T07:16:41.043Z,10.30
2023-04-01T07:19:18.186Z,10.31
2023-04-01T07:21:50.150Z,10.41
2023-04-01T07:24:28.410Z,10.44
2023-04-01T07:26:57.486Z,10.47
2023-04-01T07:29:24.612Z,10.41
2023-04-01T07:32:12.947Z,10.53
2023-04-01T07:34:56.501Z,10.50
2023-04-01T07:37:50.369Z,10.54
2023-04-01T07:40:35.785Z,10.55
2023-04-01T07:43:19.992Z,10.59
2023-04-01T07:45:52.830Z,10.58
2023-04-01T07:48:27.230Z,10.51
2023-04-01T07:51:08.423Z,10.60
2023-04-01T07:53:44.771Z,10.60
2023-04-01T07:56:20.109Z,10.69
2023-04-01T07:59:19.523Z,10.76
2023-04-01T08:01:51.810Z,10.71
2023-04-01T08:04:27.368Z,10.63
2023-04-01T08:07:21.613Z,10.59
2023-04-01T08:10:14.506Z,10.57
2023-04-01T08:13:05.470Z,10.60
2023-04-01T08:15:48.113Z,10.59
2023-04-01T08:18:30.163Z,10.68
2023-04-01T08:20:59.960Z,10.66
2023-04-01T08:23:34.139Z,10.69
2023-04-01T08:26:11.211Z,10.77
2023-04-01T08:28:45.899Z,10.77
2023-04-01T08:31:38.951Z,10.83
2023-04-01T08:34:14.543Z,10.84
2023-04-01T08:36:47.888Z,10.73
2023-04-01T08:39:19.656Z,10.78
2023-04-01T08:41:58.995Z,10.78
2023-04-01T08:45:02.920Z,10.73
2023-04-01T08:47:51.386Z,10.86
2023-04-01T08:50:35.303Z,10.84
2023-04-01T08:53:12.988Z,10.85
2023-04-01T08:56:04.405Z,10.79
2023-04-01T08:58:55.189Z,10.84
2023-04-01T09:01:44.376Z,10.95
2023-04-01T09:04:55.814Z,11.01
2023-04-01T09:07:34.386Z,10.94
2023-04-01T09:10:24.709Z,11.07
2023-04-01T09:12:56.297Z,11.04
2023-04-01T09:15:53.466Z,11.14
2023-04-01T09:18:50.533Z,11.07
2023-04-01T09:21:41.819Z,11.19
2023-04-01T09:24:34.309Z,11.08
2023-04-01T09:27:05.902Z,11.16
2023-04-01T09:29:57.495Z,11.24
2023-04-01T09:32:49.811Z,11.28
2023-04-01T09:35:46.705Z,11.11
2023-04-01T09:38:21.426Z,11.17
2023-04-01T09:41:19.133Z,11.17
2023-04-01T09:43:57.769Z,11.19
2023-04-01T09:47:02.152Z,11.24
2023-04-01T09:49:50.085Z,11.44
2023-04-01T09:52:46.623Z,11.51
2023-04-01T09:55:13.287Z,11.70
2023-04-01T09:57:55.219Z,11.76
2023-04-01T10:00:47.491Z,11.68
2023-04-01T10:04:02.499Z,11.83
2023-04-01T10:06:52.629Z,11.85
2023-04-01T10:09:40.538Z,11.90
2023-04-01T10:12:43.885Z,12.17
2023-04-01T10:15:32.351Z,12.34
2023-04-01T10:18:12.863Z,12.48
2023-04-01T10:20:45.607Z,12.47
2023-04-01T10:23:12.716Z,12.46
2023-04-01T10:25:46.479Z,12.35
2023-04-01T10:28:29.251Z,12.57
2023-04-01T10:31:41.139Z,12.38
2023-04-01T10:34:26.413Z,12.38
2023-04-01T10:36:55.104Z,12.32
2023-04-01T10:39:36.455Z,12.34
2023-04-01T10:42:21.626Z,12.38
2023-04-01T10:45:19.096Z,12.38
2023-04-01T10:47:51.913Z,12.42
2023-04-01T10:50:21.236Z,12.22
2023-04-01T10:53:52.523Z,12.35
2023-04-01T10:56:57.835Z,12.40
2023-04-01T10:59:45.928Z,12.46
2023-04-01T11:02:37.792Z,12.61
2023-04-01T11:05:23.116Z,12.63
2023-04-01T11:08:07.062Z,12.67
2023-04-01T11:14:47.194Z,12.58
2023-04-01T11:17:27.960Z,12.44
2023-04-01T11:20:14.395Z,12.34
2023-04-01T11:26:46.870Z,12.22
2023-04-01T11:29:13.396Z,12.20
2023-04-01T11:35:15.958Z,12.19
2023-04-01T11:37:56.971Z,12.23
2023-04-01T11:40:52.926Z,12.37
2023-04-01T11:43:47.261Z,12.41
2023-04-01T11:46:25.794Z,12.31
2023-04-01T11:49:14.593Z,12.26
2023-04-01T11:51:49.863Z,12.20
2023-04-01T11:54:40.718Z,12.13
2023-04-01T11:57:30.244Z,12.01
2023-04-01T12:00:03.433Z,11.98
2023-04-01T12:02:49.106Z,12.02
2023-04-01T12:05:33.876Z,12.00
2023-04-01T12:08:09.404Z,11.90
2023-04-01T12:10:46.164Z,12.01
2023-04-01T12:13:29.563Z,12.03
2023-04-01T12:16:17.428Z,12.13
2023-04-01T12:18:53.582Z,12.11
2023-04-01T12:21:39.547Z,12.06
2023-04-01T12:24:37.680Z,12.03
2023-04-01T12:27:26.232Z,12.14
2023-04-01T12:30:00.889Z,12.10
2023-04-01T12:32:47.219Z,12.10
2023-04-01T12:35:30.743Z,12.08
2023-04-01T12:38:07.042Z,11.89
2023-04-01T12:40:55.931Z,11.98
2023-04-01T12:43:53.385Z,12.05
2023-04-01T12:46:58.301Z,12.13
2023-04-01T12:49:50.876Z,12.15
2023-04-01T12:52:44.725Z,12.15
2023-04-01T12:55:36.219Z,12.22
2023-04-01T12:58:41.182Z,12.22
2023-04-01T13:01:26.472Z,12.40
2023-04-01T13:04:36.041Z,12.43
2023-04-01T13:07:21.124Z,12.47
2023-04-01T13:10:15.890Z,12.44
2023-04-01T13:16:02.716Z,12.47
2023-04-01T13:18:41.405Z,12.34
2023-04-01T13:21:27.532Z,12.28
2023-04-01T13:23:59.514Z,12.23
2023-04-01T13:26:36.833Z,12.09
2023-04-01T13:29:12.954Z,12.10
2023-04-01T13:32:07.622Z,11.85
2023-04-01T13:34:48.889Z,11.83
2023-04-01T13:37:46.277Z,11.70
2023-04-01T13:40:27.299Z,11.68
2023-04-01T13:43:20.125Z,11.82
2023-04-01T13:46:25.296Z,11.78
2023-04-01T13:49:31.332Z,11.77
2023-04-01T13:52:26.570Z,11.81
2023-04-01T13:55:20.601Z,11.81
2023-04-01T13:57:56.321Z,11.82
2023-04-01T14:00:41.437Z,11.83
2023-04-01T14:03:21.385Z,11.74
2023-04-01T14:06:15.259Z,11.62
2023-04-01T14:09:06.339Z,11.60
2023-04-01T14:11:47.995Z,11.37
2023-04-01T14:14:43.329Z,11.40
2023-04-01T14:17:36.918Z,11.23
2023-04-01T14:20:28.930Z,11.20
2023-04-01T14:23:26.874Z,11.19
2023-04-01T14:26:05.119Z,11.06
2023-04-01T14:28:55.467Z,11.10
2023-04-01T14:31:35.674Z,11.09
2023-04-01T14:34:17.321Z,10.98
2023-04-01T14:36:46.875Z,11.02
2023-04-01T14:39:51.430Z,11.03
2023-04-01T14:42:55.408Z,11.02
2023-04-01T14:45:37.180Z,11.03
2023-04-01T14:48:14.911Z,11.08
2023-04-01T14:50:45.736Z,11.10
2023-04-01T14:53:30.598Z,11.12
2023-04-01T14:56:03.716Z,11.13
2023-04-01T14:58:42.409Z,11.12
2023-04-01T15:01:43.422Z,11.10
2023-04-01T15:04:21.563Z,11.09
2023-04-01T15:06:56.995Z,11.15
2023-04-01T15:09:30.197Z,11.13
2023-04-01T15:12:18.371Z,11.08
2023-04-01T15:14:47.863Z,11.11
2023-04-01T15:17:22.403Z,11.06
2023-04-01T15:20:14.512Z,11.16
2023-04-01T15:22:53.193Z,11.16
2023-04-01T15:25:22.587Z,11.11
2023-04-01T15:28:08.271Z,11.19
2023-04-01T15:30:50.380Z,11.18
2023-04-01T15:36:42.558Z,11.19
2023-04-01T15:39:09.120Z,11.20
2023-04-01T15:42:11.409Z,11.24
2023-04-01T15:44:53.796Z,11.18
2023-04-01T15:47:34.843Z,11.22
2023-04-01T15:50:13.388Z,11.22
2023-04-01T15:53:02.809Z,11.23
2023-04-01T15:55:38.801Z,11.22
2023-04-01T15:58:25.209Z,11.18
2023-04-01T16:01:22.818Z,11.08
2023-04-01T16:04:14.433Z,11.03
2023-04-01T16:06:55.613Z,11.00
2023-04-01T16:09:43.961Z,11.08
2023-04-01T16:12:19.392Z,11.17
2023-04-01T16:14:55.468Z,11.16
2023-04-01T16:17:56.145Z,11.17
2023-04-01T16:24:02.196Z,11.12
2023-04-01T16:26:31.872Z,11.07
2023-04-01T16:29:16.552Z,10.97
2023-04-01T16:31:54.867Z,11.02
2023-04-01T16:34:44.537Z,10.99
2023-04-01T16:37:30.598Z,10.92
2023-04-01T16:40:11.425Z,10.96
2023-04-01T16:43:06.958Z,10.86
2023-04-01T16:48:53.831Z,10.87
2023-04-01T16:51:37.587Z,10.90
2023-04-01T16:54:14.207Z,10.98
2023-04-01T16:56:48.977Z,11.03
2023-04-01T16:59:28.342Z,10.89
2023-04-01T17:02:05.972Z,10.73
2023-04-01T17:04:40.456Z,10.73
2023-04-01T17:07:20.802Z,10.70
2023-04-01T17:09:53.360Z,10.58
2023-04-01T17:12:36.645Z,10.59
2023-04-01T17:15:28.020Z,10.57
2023-04-01T17:18:11.924Z,10.62
2023-04-01T17:20:51.272Z,10.59
2023-04-01T17:23:38.999Z,10.62
2023-04-01T17:26:20.983Z,10.67
2023-04-01T17:28:57.605Z,10.64
2023-04-01T17:31:26.999Z,10.67
2023-04-01T17:34:03.117Z,10.69
2023-04-01T17:36:43.752Z,10.69
2023-04-01T17:39:34.320Z,10.75
2023-04-01T17:42:11.031Z,10.63
2023-04-01T17:45:05.515Z,10.69
2023-04-01T17:47:57.266Z,10.69
2023-04-01T17:50:23.969Z,10.69
2023-04-01T17:53:15.872Z,10.66
2023-04-01T17:56:08.009Z,10.69
2023-04-01T17:58:48.387Z,10.69
2023-04-01T18:01:15.216Z,10.74
2023-04-01T18:04:02.890Z,10.64
2023-04-01T18:06:44.405Z,10.48
2023-04-01T18:09:30.509Z,10.48
2023-04-01T18:12:34.733Z,10.50
2023-04-01T18:15:37.870Z,10.51
2023-04-01T18:18:41.753Z,10.55
2023-04-01T18:21:20.747Z,10.51
2023-04-01T18:24:13.961Z,10.50
2023-04-01T18:26:45.122Z,10.46
2023-04-01T18:29:28.968Z,10.39
2023-04-01T18:32:09.471Z,10.46
2023-04-01T18:35:10.310Z,10.44
2023-04-01T18:37:52.163Z,10.43
2023-04-01T18:40:37.002Z,10.40
2023-04-01T18:43:12.942Z,10.41
2023-04-01T18:45:55.667Z,10.43
2023-04-01T18:48:27.931Z,10.48
2023-04-01T18:51:04.295Z,10.35
2023-04-01T18:53:40.973Z,10.38
2023-04-01T18:56:16.559Z,10.37
2023-04-01T18:59:16.579Z,10.37
2023-04-01T19:02:03.928Z,10.37
2023-04-01T19:04:58.648Z,10.30
2023-04-01T19:07:37.902Z,10.23
2023-04-01T19:10:15.142Z,10.20
2023-04-01T19:12:47.502Z,10.16
2023-04-01T19:15:14.202Z,10.14
2023-04-01T19:18:14.553Z,10.18
2023-04-01T19:20:48.650Z,10.22
2023-04-01T19:23:29.668Z,10.19
2023-04-01T19:26:00.648Z,10.12
2023-04-01T19:28:51.259Z,10.04
2023-04-01T19:31:29.773Z,10.04
2023-04-01T19:34:15.130Z,10.09
2023-04-01T19:36:54.620Z,10.13
2023-04-01T19:39:58.391Z,10.06
2023-04-01T19:42:45.017Z,10.05
2023-04-01T19:45:27.928Z,10.01
2023-04-01T19:48:16.115Z,10.05
2023-04-01T19:50:52.777Z,10.09
2023-04-01T19:53:36.983Z,10.11
2023-04-01T19:56:18.654Z,10.05
2023-04-01T19:59:12.797Z,10.01
2023-04-01T20:01:49.710Z,9.93
2023-04-01T20:04:27.083Z,9.88
2023-04-01T20:07:01.208Z,9.75
2023-04-01T20:09:36.685Z,9.60
2023-04-01T20:12:24.929Z,9.47
2023-04-01T20:14:56.147Z,9.38
2023-04-01T20:17:25.963Z,9.36
2023-04-01T20:19:56.829Z,9.23
2023-04-01T20:23:00.921Z,9.20
2023-04-01T20:25:30.613Z,9.17
2023-04-01T20:28:03.120Z,9.13
2023-04-01T20:30:47.927Z,9.06
2023-04-01T20:33:33.459Z,8.94
2023-04-01T20:36:28.304Z,8.91
2023-04-01T20:39:22.608Z,8.81
2023-04-01T20:42:13.616Z,8.71
2023-04-01T20:45:18.253Z,8.69
2023-04-01T20:48:14.757Z,8.67
2023-04-01T20:51:05.031Z,8.56
2023-04-01T20:53:45.116Z,8.54
2023-04-01T20:56:17.620Z,8.56
2023-04-01T20:58:53.178Z,8.54
2023-04-01T21:01:38.128Z,8.54
2023-04-01T21:04:29.555Z,8.51
2023-04-01T21:07:32.994Z,8.51
2023-04-01T21:10:38.386Z,8.48
2023-04-01T21:13:27.125Z,8.45
2023-04-01T21:16:01.396Z,8.41
2023-04-01T21:19:00.525Z,8.31
2023-04-01T21:21:48.257Z,8.16
2023-04-01T21:24:14.855Z,8.02
2023-04-01T21:27:10.515Z,7.95
2023-04-01T21:29:47.154Z,7.89
2023-04-01T21:32:37.045Z,7.88
2023-04-01T21:35:21.873Z,7.83
2023-04-01T21:38:09.020Z,7.80
2023-04-01T21:40:59.920Z,7.75
2023-04-01T21:43:38.388Z,7.74
2023-04-01T21:46:04.898Z,7.72
2023-04-01T21:48:46.839Z,7.69
2023-04-01T21:52:18.209Z,7.69
2023-04-01T21:55:22.079Z,7.66
2023-04-01T21:58:21.243Z,7.65
2023-04-01T22:01:11.403Z,7.60
2023-04-01T22:04:24.890Z,7.60
2023-04-01T22:06:56.675Z,7.61
2023-04-01T22:09:40.821Z,7.61
2023-04-01T22:12:25.197Z,7.56
2023-04-01T22:15:10.355Z,7.49
2023-04-01T22:17:47.697Z,7.50
2023-04-01T22:20:53.996Z,7.51
2023-04-01T22:23:36.469Z,7.47
2023-04-01T22:26:36.371Z,7.43
2023-04-01T22:29:02.870Z,7.42
2023-04-01T22:31:42.698Z,7.43
2023-04-01T22:34:16.085Z,7.35
2023-04-01T22:37:10.995Z,7.33
2023-04-01T22:39:51.747Z,7.35
2023-04-01T22:42:24.504Z,7.32
2023-04-01T22:45:21.932Z,7.29
2023-04-01T22:48:16.964Z,7.25
2023-04-01T22:50:48.748Z,7.19
2023-04-01T22:53:30.918Z,7.14
2023-04-01T22:56:02.982Z,7.11
2023-04-01T22:58:36.778Z,7.12
2023-04-01T23:01:11.985Z,7.08
2023-04-01T23:03:50.029Z,7.06
2023-04-01T23:06:23.145Z,7.03
2023-04-01T23:09:18.179Z,7.04
2023-04-01T23:11:54.244Z,6.98
2023-04-01T23:14:27.821Z,6.97
2023-04-01T23:17:03.862Z,6.95
2023-04-01T23:19:57.596Z,6.92
2023-04-01T23:22:33.252Z,6.93
2023-04-01T23:25:06.677Z,6.94
2023-04-01T23:27:48.603Z,6.94
2023-04-01T23:30:39.931Z,6.95
2023-04-01T23:33:33.430Z,6.95
2023-04-01T23:36:12.681Z,6.96
2023-04-01T23:38:43.019Z,6.85
2023-04-01T23:41:21.544Z,6.78
2023-04-01T23:44:01.284Z,6.73
2023-04-01T23:46:30.047Z,6.64
2023-04-01T23:48:57.024Z,6.65
2023-04-01T23:51:27.570Z,6.68
2023-04-01T23:54:05.667Z,6.69
2023-04-01T23:56:40.648Z,6.66
2023-04-01T23:59:19.672Z,6.67
